Hlavní strana
METAR-TAF:

METAR-TAF

Letiště :

Vídeňské Nové Město, Rakousko

zeměpisná šířka: 47-50-36N, zeměpisná délka: 016-15-29E, výška: 272 m

Aktuální stav počasí

Zpráva byla vytvořena před 20 hodinami a 33 minutami, v 15:00 UTC
Severní vítr 7 kt
Teplota
Tlak
Viditelnost: 4000 m
slabé sněžení, kouřmo

METAR: LOAN 201500Z 36007KT 4000 -SN BR SCT006ST OVC008ST

Čas: 12:33 (11:33 UTC)

Předpověď počasí

Zpráva byla vytvořena před 21 hodinami a 58 minutami, v 13:35 UTC
Předpověď platná od 20 v 13 UTC do 20 v 21 UTC
Severní vítr 5 kt
Viditelnost: 5000 m
Zataženo ve výšce 1000 ft
slabé sněžení, kouřmo
Dočasný
od 20 v 13 UTC do 20 v 21 UTC
Viditelnost: 1400 m
Zataženo ve výšce 600 ft
sníh

TAF: LOAN 201335Z 2013/2021 36005KT 5000 -SN BR OVC010 TEMPO 2013/2021 1400 SN OVC006

Stav a předpovědi počasí z více než 4 000 letišť (zprávy METAR a TAF).

Červené a žluté tečky na mapě představují dostupné meteorologické stanice.

Když kurzor umístíte na tečku, zobrazí se název stanice.

Pak kliknutím zobrazíte stav a předpověď počasí.

Chcete-li změnit mapu, kliknutím na zelené tlačítko se znaménkem +mapu přiblížíte, kliknutím na zelené tlačítko se znaménkem – mapu oddálíte a kliknutím na zelené šipky přejdete na sousední mapy.


METAR-TAF: